sensor_id;sensor_type;location;lat;lon;timestamp;temperature;humidity
22908;DHT22;11620;50.050;8.690;2023-07-02T00:02:35;15.80;99.90
22908;DHT22;11620;50.050;8.690;2023-07-02T00:05:21;15.60;99.90
22908;DHT22;11620;50.050;8.690;2023-07-02T00:08:07;15.70;99.90
22908;DHT22;11620;50.050;8.690;2023-07-02T00:10:54;15.70;99.90
22908;DHT22;11620;50.050;8.690;2023-07-02T00:13:40;15.80;99.90
22908;DHT22;11620;50.050;8.690;2023-07-02T00:16:26;15.80;99.90
22908;DHT22;11620;50.050;8.690;2023-07-02T00:19:16;15.90;99.90
22908;DHT22;11620;50.050;8.690;2023-07-02T00:22:02;15.90;99.90
22908;DHT22;11620;50.050;8.690;2023-07-02T00:24:49;15.90;99.90
22908;DHT22;11620;50.050;8.690;2023-07-02T00:27:37;15.80;99.90
22908;DHT22;11620;50.050;8.690;2023-07-02T00:30:24;15.70;99.90
22908;DHT22;11620;50.050;8.690;2023-07-02T00:33:10;15.60;99.90
22908;DHT22;11620;50.050;8.690;2023-07-02T00:35:56;15.60;99.90
22908;DHT22;11620;50.050;8.690;2023-07-02T00:38:48;15.70;99.90
22908;DHT22;11620;50.050;8.690;2023-07-02T00:41:35;15.60;99.90
22908;DHT22;11620;50.050;8.690;2023-07-02T00:44:21;15.70;99.90
22908;DHT22;11620;50.050;8.690;2023-07-02T00:47:08;15.60;99.90
22908;DHT22;11620;50.050;8.690;2023-07-02T00:49:54;15.60;99.90
22908;DHT22;11620;50.050;8.690;2023-07-02T00:52:41;15.50;99.90
22908;DHT22;11620;50.050;8.690;2023-07-02T00:55:27;15.30;99.90
22908;DHT22;11620;50.050;8.690;2023-07-02T00:58:13;15.30;99.90
22908;DHT22;11620;50.050;8.690;2023-07-02T01:01:01;15.20;99.90
22908;DHT22;11620;50.050;8.690;2023-07-02T01:03:56;15.30;99.90
22908;DHT22;11620;50.050;8.690;2023-07-02T01:06:43;15.30;99.90
22908;DHT22;11620;50.050;8.690;2023-07-02T01:09:29;15.30;99.90
22908;DHT22;11620;50.050;8.690;2023-07-02T01:12:17;15.30;99.90
22908;DHT22;11620;50.050;8.690;2023-07-02T01:15:05;15.30;99.90
22908;DHT22;11620;50.050;8.690;2023-07-02T01:17:52;15.40;99.90
22908;DHT22;11620;50.050;8.690;2023-07-02T01:20:40;15.40;99.90
22908;DHT22;11620;50.050;8.690;2023-07-02T01:23:27;15.60;99.90
22908;DHT22;11620;50.050;8.690;2023-07-02T01:26:13;15.40;99.90
22908;DHT22;11620;50.050;8.690;2023-07-02T01:29:17;15.40;99.90
22908;DHT22;11620;50.050;8.690;2023-07-02T01:32:04;15.30;99.90
22908;DHT22;11620;50.050;8.690;2023-07-02T01:34:50;15.20;99.90
22908;DHT22;11620;50.050;8.690;2023-07-02T01:37:39;15.00;99.90
22908;DHT22;11620;50.050;8.690;2023-07-02T01:40:25;15.00;99.90
22908;DHT22;11620;50.050;8.690;2023-07-02T01:43:11;15.00;99.90
22908;DHT22;11620;50.050;8.690;2023-07-02T01:45:58;14.80;99.90
22908;DHT22;11620;50.050;8.690;2023-07-02T01:48:45;14.60;99.90
22908;DHT22;11620;50.050;8.690;2023-07-02T01:51:32;14.50;99.90
22908;DHT22;11620;50.050;8.690;2023-07-02T01:54:19;14.40;99.90
22908;DHT22;11620;50.050;8.690;2023-07-02T01:57:05;14.30;99.90
22908;DHT22;11620;50.050;8.690;2023-07-02T01:59:52;14.20;99.90
22908;DHT22;11620;50.050;8.690;2023-07-02T02:02:38;14.20;99.90
22908;DHT22;11620;50.050;8.690;2023-07-02T02:05:24;14.20;99.90
22908;DHT22;11620;50.050;8.690;2023-07-02T02:08:11;14.10;99.90
22908;DHT22;11620;50.050;8.690;2023-07-02T02:10:57;14.00;99.90
22908;DHT22;11620;50.050;8.690;2023-07-02T02:13:43;13.80;99.90
22908;DHT22;11620;50.050;8.690;2023-07-02T02:16:30;13.90;99.90
22908;DHT22;11620;50.050;8.690;2023-07-02T02:19:16;14.00;99.90
22908;DHT22;11620;50.050;8.690;2023-07-02T02:22:02;14.00;99.90
22908;DHT22;11620;50.050;8.690;2023-07-02T02:24:49;14.00;99.90
22908;DHT22;11620;50.050;8.690;2023-07-02T02:27:35;13.80;99.90
22908;DHT22;11620;50.050;8.690;2023-07-02T02:30:21;13.80;99.90
22908;DHT22;11620;50.050;8.690;2023-07-02T02:33:08;13.60;99.90
22908;DHT22;11620;50.050;8.690;2023-07-02T02:35:54;13.80;99.90
22908;DHT22;11620;50.050;8.690;2023-07-02T02:38:40;13.70;99.90
22908;DHT22;11620;50.050;8.690;2023-07-02T02:41:27;13.60;99.90
22908;DHT22;11620;50.050;8.690;2023-07-02T02:44:13;13.60;99.90
22908;DHT22;11620;50.050;8.690;2023-07-02T02:46:59;13.60;99.90
22908;DHT22;11620;50.050;8.690;2023-07-02T02:49:46;13.50;99.90
22908;DHT22;11620;50.050;8.690;2023-07-02T02:52:32;13.50;99.90
22908;DHT22;11620;50.050;8.690;2023-07-02T02:55:18;13.40;99.90
22908;DHT22;11620;50.050;8.690;2023-07-02T02:58:05;13.40;99.90
22908;DHT22;11620;50.050;8.690;2023-07-02T03:00:51;13.40;99.90
22908;DHT22;11620;50.050;8.690;2023-07-02T03:03:41;13.50;99.90
22908;DHT22;11620;50.050;8.690;2023-07-02T03:06:31;13.50;99.90
22908;DHT22;11620;50.050;8.690;2023-07-02T03:09:17;13.40;99.90
22908;DHT22;11620;50.050;8.690;2023-07-02T03:12:04;13.50;99.90
22908;DHT22;11620;50.050;8.690;2023-07-02T03:14:51;13.50;99.90
22908;DHT22;11620;50.050;8.690;2023-07-02T03:17:40;13.60;99.90
22908;DHT22;11620;50.050;8.690;2023-07-02T03:20:26;13.60;99.90
22908;DHT22;11620;50.050;8.690;2023-07-02T03:23:13;13.50;99.90
22908;DHT22;11620;50.050;8.690;2023-07-02T03:25:59;13.60;99.90
22908;DHT22;11620;50.050;8.690;2023-07-02T03:28:45;13.60;99.90
22908;DHT22;11620;50.050;8.690;2023-07-02T03:31:31;13.50;99.90
22908;DHT22;11620;50.050;8.690;2023-07-02T03:34:18;13.50;99.90
22908;DHT22;11620;50.050;8.690;2023-07-02T03:37:04;13.30;99.90
22908;DHT22;11620;50.050;8.690;2023-07-02T03:39:51;13.20;99.90
22908;DHT22;11620;50.050;8.690;2023-07-02T03:42:37;13.20;99.90
22908;DHT22;11620;50.050;8.690;2023-07-02T03:45:24;13.30;99.90
22908;DHT22;11620;50.050;8.690;2023-07-02T03:48:10;13.40;99.90
22908;DHT22;11620;50.050;8.690;2023-07-02T03:50:56;13.40;99.90
22908;DHT22;11620;50.050;8.690;2023-07-02T03:53:42;13.50;99.90
22908;DHT22;11620;50.050;8.690;2023-07-02T03:56:29;13.40;99.90
22908;DHT22;11620;50.050;8.690;2023-07-02T03:59:15;13.40;99.90
22908;DHT22;11620;50.050;8.690;2023-07-02T04:02:02;13.40;99.90
22908;DHT22;11620;50.050;8.690;2023-07-02T04:04:48;13.30;99.90
22908;DHT22;11620;50.050;8.690;2023-07-02T04:07:34;13.50;99.90
22908;DHT22;11620;50.050;8.690;2023-07-02T04:10:21;13.40;99.90
22908;DHT22;11620;50.050;8.690;2023-07-02T04:13:07;13.50;99.90
22908;DHT22;11620;50.050;8.690;2023-07-02T04:15:53;13.50;99.90
22908;DHT22;11620;50.050;8.690;2023-07-02T04:18:40;13.30;99.90
22908;DHT22;11620;50.050;8.690;2023-07-02T04:21:26;13.40;99.90
22908;DHT22;11620;50.050;8.690;2023-07-02T04:24:12;13.30;99.90
22908;DHT22;11620;50.050;8.690;2023-07-02T04:26:58;13.40;99.90
22908;DHT22;11620;50.050;8.690;2023-07-02T04:29:46;13.40;99.90
22908;DHT22;11620;50.050;8.690;2023-07-02T04:32:32;13.40;99.90
22908;DHT22;11620;50.050;8.690;2023-07-02T04:35:18;13.30;99.90
22908;DHT22;11620;50.050;8.690;2023-07-02T04:38:05;13.40;99.90
22908;DHT22;11620;50.050;8.690;2023-07-02T04:40:52;13.40;99.90
22908;DHT22;11620;50.050;8.690;2023-07-02T04:43:38;13.50;99.90
22908;DHT22;11620;50.050;8.690;2023-07-02T04:46:25;13.50;99.90
22908;DHT22;11620;50.050;8.690;2023-07-02T04:49:11;13.60;99.90
22908;DHT22;11620;50.050;8.690;2023-07-02T04:51:57;13.70;99.90
22908;DHT22;11620;50.050;8.690;2023-07-02T04:54:44;13.60;99.90
22908;DHT22;11620;50.050;8.690;2023-07-02T04:57:30;13.70;99.90
22908;DHT22;11620;50.050;8.690;2023-07-02T05:00:17;13.70;99.90
22908;DHT22;11620;50.050;8.690;2023-07-02T05:03:03;13.70;99.90
22908;DHT22;11620;50.050;8.690;2023-07-02T05:05:50;13.80;99.90
22908;DHT22;11620;50.050;8.690;2023-07-02T05:08:36;13.70;99.90
22908;DHT22;11620;50.050;8.690;2023-07-02T05:11:22;13.90;99.90
22908;DHT22;11620;50.050;8.690;2023-07-02T05:14:09;13.80;99.90
22908;DHT22;11620;50.050;8.690;2023-07-02T05:16:55;13.90;99.90
22908;DHT22;11620;50.050;8.690;2023-07-02T05:19:41;13.90;99.90
22908;DHT22;11620;50.050;8.690;2023-07-02T05:22:28;13.90;99.90
22908;DHT22;11620;50.050;8.690;2023-07-02T05:25:14;14.00;99.90
22908;DHT22;11620;50.050;8.690;2023-07-02T05:28:01;14.00;99.90
22908;DHT22;11620;50.050;8.690;2023-07-02T05:30:47;14.00;99.90
22908;DHT22;11620;50.050;8.690;2023-07-02T05:33:33;14.10;99.90
22908;DHT22;11620;50.050;8.690;2023-07-02T05:36:20;14.00;99.90
22908;DHT22;11620;50.050;8.690;2023-07-02T05:39:08;14.10;99.90
22908;DHT22;11620;50.050;8.690;2023-07-02T05:41:54;14.00;99.90
22908;DHT22;11620;50.050;8.690;2023-07-02T05:44:40;14.20;99.90
22908;DHT22;11620;50.050;8.690;2023-07-02T05:47:27;14.20;99.90
22908;DHT22;11620;50.050;8.690;2023-07-02T05:50:13;14.10;99.90
22908;DHT22;11620;50.050;8.690;2023-07-02T05:52:59;14.10;99.90
22908;DHT22;11620;50.050;8.690;2023-07-02T05:55:46;14.20;99.90
22908;DHT22;11620;50.050;8.690;2023-07-02T05:58:33;14.30;99.90
22908;DHT22;11620;50.050;8.690;2023-07-02T06:01:19;14.40;99.90
22908;DHT22;11620;50.050;8.690;2023-07-02T06:04:05;14.60;99.90
22908;DHT22;11620;50.050;8.690;2023-07-02T06:06:52;14.60;99.90
22908;DHT22;11620;50.050;8.690;2023-07-02T06:09:38;14.70;99.90
22908;DHT22;11620;50.050;8.690;2023-07-02T06:12:24;14.70;99.90
22908;DHT22;11620;50.050;8.690;2023-07-02T06:15:11;14.90;99.90
22908;DHT22;11620;50.050;8.690;2023-07-02T06:17:57;15.00;99.90
22908;DHT22;11620;50.050;8.690;2023-07-02T06:20:44;14.90;99.90
22908;DHT22;11620;50.050;8.690;2023-07-02T06:23:42;14.90;99.90
22908;DHT22;11620;50.050;8.690;2023-07-02T06:26:29;15.00;99.90
22908;DHT22;11620;50.050;8.690;2023-07-02T06:29:17;15.10;99.90
22908;DHT22;11620;50.050;8.690;2023-07-02T06:32:04;15.10;99.90
22908;DHT22;11620;50.050;8.690;2023-07-02T06:34:50;15.30;99.90
22908;DHT22;11620;50.050;8.690;2023-07-02T06:37:37;15.30;99.90
22908;DHT22;11620;50.050;8.690;2023-07-02T06:40:23;15.30;99.90
22908;DHT22;11620;50.050;8.690;2023-07-02T06:43:09;15.30;99.90
22908;DHT22;11620;50.050;8.690;2023-07-02T06:45:55;15.50;99.90
22908;DHT22;11620;50.050;8.690;2023-07-02T06:48:42;15.40;99.90
22908;DHT22;11620;50.050;8.690;2023-07-02T06:51:28;15.20;99.90
22908;DHT22;11620;50.050;8.690;2023-07-02T06:54:15;15.20;99.90
22908;DHT22;11620;50.050;8.690;2023-07-02T06:57:01;15.10;99.90
22908;DHT22;11620;50.050;8.690;2023-07-02T06:59:48;15.10;99.90
22908;DHT22;11620;50.050;8.690;2023-07-02T07:02:34;15.20;99.90
22908;DHT22;11620;50.050;8.690;2023-07-02T07:05:20;15.20;99.90
22908;DHT22;11620;50.050;8.690;2023-07-02T07:08:07;15.40;99.90
22908;DHT22;11620;50.050;8.690;2023-07-02T07:10:54;15.60;99.90
22908;DHT22;11620;50.050;8.690;2023-07-02T07:13:40;15.90;99.90
22908;DHT22;11620;50.050;8.690;2023-07-02T07:16:27;16.20;99.90
22908;DHT22;11620;50.050;8.690;2023-07-02T07:19:13;15.90;99.90
22908;DHT22;11620;50.050;8.690;2023-07-02T07:21:59;16.10;99.90
22908;DHT22;11620;50.050;8.690;2023-07-02T07:24:46;16.00;99.90
22908;DHT22;11620;50.050;8.690;2023-07-02T07:27:32;15.90;99.90
22908;DHT22;11620;50.050;8.690;2023-07-02T07:30:19;15.80;99.90
22908;DHT22;11620;50.050;8.690;2023-07-02T07:33:09;15.80;99.90
22908;DHT22;11620;50.050;8.690;2023-07-02T07:35:56;15.90;99.90
22908;DHT22;11620;50.050;8.690;2023-07-02T07:38:45;15.90;99.90
22908;DHT22;11620;50.050;8.690;2023-07-02T07:41:32;16.20;99.90
22908;DHT22;11620;50.050;8.690;2023-07-02T07:44:18;16.10;99.90
22908;DHT22;11620;50.050;8.690;2023-07-02T07:47:05;16.00;99.90
22908;DHT22;11620;50.050;8.690;2023-07-02T07:49:51;16.00;99.90
22908;DHT22;11620;50.050;8.690;2023-07-02T07:52:39;15.90;99.90
22908;DHT22;11620;50.050;8.690;2023-07-02T07:55:25;16.20;99.90
22908;DHT22;11620;50.050;8.690;2023-07-02T07:58:12;16.10;99.90
22908;DHT22;11620;50.050;8.690;2023-07-02T08:00:58;16.30;99.90
22908;DHT22;11620;50.050;8.690;2023-07-02T08:03:44;16.40;99.90
22908;DHT22;11620;50.050;8.690;2023-07-02T08:06:31;16.70;99.90
22908;DHT22;11620;50.050;8.690;2023-07-02T08:09:17;17.00;99.90
22908;DHT22;11620;50.050;8.690;2023-07-02T08:12:04;17.20;99.90
22908;DHT22;11620;50.050;8.690;2023-07-02T08:14:50;17.20;99.90
22908;DHT22;11620;50.050;8.690;2023-07-02T08:17:36;17.50;99.90
22908;DHT22;11620;50.050;8.690;2023-07-02T08:20:23;17.60;99.90
22908;DHT22;11620;50.050;8.690;2023-07-02T08:23:09;17.70;99.90
22908;DHT22;11620;50.050;8.690;2023-07-02T08:25:56;17.60;99.90
22908;DHT22;11620;50.050;8.690;2023-07-02T08:28:42;17.50;99.90
22908;DHT22;11620;50.050;8.690;2023-07-02T08:31:28;17.80;99.90
22908;DHT22;11620;50.050;8.690;2023-07-02T08:34:15;18.20;99.90
22908;DHT22;11620;50.050;8.690;2023-07-02T08:37:01;18.80;99.90
22908;DHT22;11620;50.050;8.690;2023-07-02T08:39:49;19.10;99.90
22908;DHT22;11620;50.050;8.690;2023-07-02T08:42:38;19.50;99.90
22908;DHT22;11620;50.050;8.690;2023-07-02T08:45:25;19.40;99.90
22908;DHT22;11620;50.050;8.690;2023-07-02T08:48:12;19.70;99.90
22908;DHT22;11620;50.050;8.690;2023-07-02T08:50:59;20.00;99.90
22908;DHT22;11620;50.050;8.690;2023-07-02T08:53:45;20.20;99.90
22908;DHT22;11620;50.050;8.690;2023-07-02T08:56:31;19.50;99.90
22908;DHT22;11620;50.050;8.690;2023-07-02T08:59:18;19.70;99.90
22908;DHT22;11620;50.050;8.690;2023-07-02T09:02:04;19.60;99.90
22908;DHT22;11620;50.050;8.690;2023-07-02T09:04:59;20.30;99.90
22908;DHT22;11620;50.050;8.690;2023-07-02T09:07:49;20.70;99.90
22908;DHT22;11620;50.050;8.690;2023-07-02T09:10:36;20.90;99.90
22908;DHT22;11620;50.050;8.690;2023-07-02T09:13:23;20.80;99.90
22908;DHT22;11620;50.050;8.690;2023-07-02T09:16:21;20.50;99.90
22908;DHT22;11620;50.050;8.690;2023-07-02T09:19:08;20.20;99.90
22908;DHT22;11620;50.050;8.690;2023-07-02T09:21:57;20.30;99.90
22908;DHT22;11620;50.050;8.690;2023-07-02T09:24:55;20.20;99.90
22908;DHT22;11620;50.050;8.690;2023-07-02T09:27:43;20.40;99.90
22908;DHT22;11620;50.050;8.690;2023-07-02T09:30:29;20.30;99.90
22908;DHT22;11620;50.050;8.690;2023-07-02T09:33:16;20.20;99.90
22908;DHT22;11620;50.050;8.690;2023-07-02T09:36:03;20.00;99.90
22908;DHT22;11620;50.050;8.690;2023-07-02T09:38:50;20.00;99.90
22908;DHT22;11620;50.050;8.690;2023-07-02T09:41:36;19.90;99.90
22908;DHT22;11620;50.050;8.690;2023-07-02T09:44:30;20.00;99.90
22908;DHT22;11620;50.050;8.690;2023-07-02T09:47:18;20.10;99.90
22908;DHT22;11620;50.050;8.690;2023-07-02T09:50:05;20.30;99.90
22908;DHT22;11620;50.050;8.690;2023-07-02T09:52:52;20.50;99.90
22908;DHT22;11620;50.050;8.690;2023-07-02T09:55:39;20.50;99.90
22908;DHT22;11620;50.050;8.690;2023-07-02T09:58:27;20.30;99.90
22908;DHT22;11620;50.050;8.690;2023-07-02T10:01:17;20.20;99.90
22908;DHT22;11620;50.050;8.690;2023-07-02T10:04:14;20.30;99.90
22908;DHT22;11620;50.050;8.690;2023-07-02T10:07:01;20.60;99.90
22908;DHT22;11620;50.050;8.690;2023-07-02T10:09:47;20.90;99.90
22908;DHT22;11620;50.050;8.690;2023-07-02T10:12:34;21.60;99.90
22908;DHT22;11620;50.050;8.690;2023-07-02T10:15:29;22.00;99.90
22908;DHT22;11620;50.050;8.690;2023-07-02T10:18:26;21.80;99.90
22908;DHT22;11620;50.050;8.690;2023-07-02T10:21:14;21.90;99.90
22908;DHT22;11620;50.050;8.690;2023-07-02T10:24:14;22.10;99.90
22908;DHT22;11620;50.050;8.690;2023-07-02T10:27:01;22.30;99.90
22908;DHT22;11620;50.050;8.690;2023-07-02T10:29:49;22.20;99.90
22908;DHT22;11620;50.050;8.690;2023-07-02T10:32:37;22.20;99.90
22908;DHT22;11620;50.050;8.690;2023-07-02T10:35:32;22.30;99.90
22908;DHT22;11620;50.050;8.690;2023-07-02T10:38:21;21.70;99.90
22908;DHT22;11620;50.050;8.690;2023-07-02T10:41:08;21.50;99.90
22908;DHT22;11620;50.050;8.690;2023-07-02T10:44:08;21.20;99.90
22908;DHT22;11620;50.050;8.690;2023-07-02T10:46:54;21.30;99.90
22908;DHT22;11620;50.050;8.690;2023-07-02T10:49:42;21.60;99.90
22908;DHT22;11620;50.050;8.690;2023-07-02T10:52:37;22.10;99.90
22908;DHT22;11620;50.050;8.690;2023-07-02T10:55:24;22.70;99.90
22908;DHT22;11620;50.050;8.690;2023-07-02T10:58:12;23.50;99.90
22908;DHT22;11620;50.050;8.690;2023-07-02T11:00:58;24.00;99.90
22908;DHT22;11620;50.050;8.690;2023-07-02T11:03:44;24.30;99.90
22908;DHT22;11620;50.050;8.690;2023-07-02T11:06:32;24.20;99.90
22908;DHT22;11620;50.050;8.690;2023-07-02T11:09:19;23.90;99.90
22908;DHT22;11620;50.050;8.690;2023-07-02T11:12:07;23.80;99.90
22908;DHT22;11620;50.050;8.690;2023-07-02T11:14:53;23.80;99.90
22908;DHT22;11620;50.050;8.690;2023-07-02T11:17:40;23.70;99.90
22908;DHT22;11620;50.050;8.690;2023-07-02T11:20:33;22.80;99.90
22908;DHT22;11620;50.050;8.690;2023-07-02T11:23:21;22.40;99.90
22908;DHT22;11620;50.050;8.690;2023-07-02T11:26:08;22.40;99.90
22908;DHT22;11620;50.050;8.690;2023-07-02T11:28:54;22.30;99.90
22908;DHT22;11620;50.050;8.690;2023-07-02T11:31:41;22.30;99.90
22908;DHT22;11620;50.050;8.690;2023-07-02T11:34:27;22.30;99.90
22908;DHT22;11620;50.050;8.690;2023-07-02T11:37:13;22.70;99.90
22908;DHT22;11620;50.050;8.690;2023-07-02T11:40:00;22.30;99.90
22908;DHT22;11620;50.050;8.690;2023-07-02T11:42:46;22.20;99.90
22908;DHT22;11620;50.050;8.690;2023-07-02T11:45:32;21.90;99.90
22908;DHT22;11620;50.050;8.690;2023-07-02T11:48:19;22.20;99.90
22908;DHT22;11620;50.050;8.690;2023-07-02T11:51:05;22.20;99.90
22908;DHT22;11620;50.050;8.690;2023-07-02T11:53:51;22.40;99.90
22908;DHT22;11620;50.050;8.690;2023-07-02T11:56:38;22.10;99.90
22908;DHT22;11620;50.050;8.690;2023-07-02T11:59:24;22.40;99.90
22908;DHT22;11620;50.050;8.690;2023-07-02T12:02:10;22.90;99.90
22908;DHT22;11620;50.050;8.690;2023-07-02T12:04:57;22.90;99.90
22908;DHT22;11620;50.050;8.690;2023-07-02T12:07:43;22.60;99.90
22908;DHT22;11620;50.050;8.690;2023-07-02T12:10:29;22.50;99.90
22908;DHT22;11620;50.050;8.690;2023-07-02T12:13:16;22.40;99.90
22908;DHT22;11620;50.050;8.690;2023-07-02T12:16:02;22.80;99.90
22908;DHT22;11620;50.050;8.690;2023-07-02T12:18:49;23.20;99.90
22908;DHT22;11620;50.050;8.690;2023-07-02T12:21:35;23.20;99.90
22908;DHT22;11620;50.050;8.690;2023-07-02T12:24:21;23.40;99.90
22908;DHT22;11620;50.050;8.690;2023-07-02T12:27:08;23.70;99.90
22908;DHT22;11620;50.050;8.690;2023-07-02T12:29:56;24.00;99.90
22908;DHT22;11620;50.050;8.690;2023-07-02T12:32:42;24.10;99.90
22908;DHT22;11620;50.050;8.690;2023-07-02T12:35:29;23.90;99.90
22908;DHT22;11620;50.050;8.690;2023-07-02T12:38:16;23.90;99.90
22908;DHT22;11620;50.050;8.690;2023-07-02T12:41:02;23.40;99.90
22908;DHT22;11620;50.050;8.690;2023-07-02T12:43:48;23.20;99.90
22908;DHT22;11620;50.050;8.690;2023-07-02T12:46:35;22.80;99.90
22908;DHT22;11620;50.050;8.690;2023-07-02T12:49:21;22.60;99.90
22908;DHT22;11620;50.050;8.690;2023-07-02T12:52:07;22.90;99.90
22908;DHT22;11620;50.050;8.690;2023-07-02T12:54:54;22.70;99.90
22908;DHT22;11620;50.050;8.690;2023-07-02T12:57:40;22.30;99.90
22908;DHT22;11620;50.050;8.690;2023-07-02T13:00:26;22.40;99.90
22908;DHT22;11620;50.050;8.690;2023-07-02T13:03:13;22.40;99.90
22908;DHT22;11620;50.050;8.690;2023-07-02T13:06:00;22.70;99.90
22908;DHT22;11620;50.050;8.690;2023-07-02T13:08:46;22.70;99.90
22908;DHT22;11620;50.050;8.690;2023-07-02T13:11:33;23.00;99.90
22908;DHT22;11620;50.050;8.690;2023-07-02T13:14:19;23.10;99.90
22908;DHT22;11620;50.050;8.690;2023-07-02T13:17:05;23.40;99.90
22908;DHT22;11620;50.050;8.690;2023-07-02T13:19:52;23.40;99.90
22908;DHT22;11620;50.050;8.690;2023-07-02T13:22:38;23.90;99.90
22908;DHT22;11620;50.050;8.690;2023-07-02T13:25:24;23.90;99.90
22908;DHT22;11620;50.050;8.690;2023-07-02T13:28:11;23.50;99.90
22908;DHT22;11620;50.050;8.690;2023-07-02T13:30:57;23.40;99.90
22908;DHT22;11620;50.050;8.690;2023-07-02T13:33:43;23.40;99.90
22908;DHT22;11620;50.050;8.690;2023-07-02T13:36:32;23.30;99.90
22908;DHT22;11620;50.050;8.690;2023-07-02T13:39:18;23.20;99.90
22908;DHT22;11620;50.050;8.690;2023-07-02T13:42:05;23.10;99.90
22908;DHT22;11620;50.050;8.690;2023-07-02T13:44:51;23.20;99.90
22908;DHT22;11620;50.050;8.690;2023-07-02T13:47:38;23.30;99.90
22908;DHT22;11620;50.050;8.690;2023-07-02T13:50:24;23.60;99.90
22908;DHT22;11620;50.050;8.690;2023-07-02T13:53:10;23.60;99.90
22908;DHT22;11620;50.050;8.690;2023-07-02T13:55:57;23.50;99.90
22908;DHT22;11620;50.050;8.690;2023-07-02T14:01:43;23.60;99.90
22908;DHT22;11620;50.050;8.690;2023-07-02T14:04:29;23.10;99.90
22908;DHT22;11620;50.050;8.690;2023-07-02T14:07:15;22.90;99.90
22908;DHT22;11620;50.050;8.690;2023-07-02T14:10:02;22.70;99.90
22908;DHT22;11620;50.050;8.690;2023-07-02T14:12:49;22.80;99.90
22908;DHT22;11620;50.050;8.690;2023-07-02T14:15:36;22.70;99.90
22908;DHT22;11620;50.050;8.690;2023-07-02T14:18:22;23.00;99.90
22908;DHT22;11620;50.050;8.690;2023-07-02T14:21:08;23.10;99.90
22908;DHT22;11620;50.050;8.690;2023-07-02T14:23:55;23.50;99.90
22908;DHT22;11620;50.050;8.690;2023-07-02T14:26:41;23.50;99.90
22908;DHT22;11620;50.050;8.690;2023-07-02T14:29:29;23.90;99.90
22908;DHT22;11620;50.050;8.690;2023-07-02T14:32:16;24.10;99.90
22908;DHT22;11620;50.050;8.690;2023-07-02T14:35:03;23.90;99.90
22908;DHT22;11620;50.050;8.690;2023-07-02T14:37:49;23.90;99.90
22908;DHT22;11620;50.050;8.690;2023-07-02T14:40:35;23.80;99.90
22908;DHT22;11620;50.050;8.690;2023-07-02T14:43:25;23.50;99.90
22908;DHT22;11620;50.050;8.690;2023-07-02T14:46:11;23.50;99.90
22908;DHT22;11620;50.050;8.690;2023-07-02T14:48:58;23.60;99.90
22908;DHT22;11620;50.050;8.690;2023-07-02T14:51:44;23.50;99.90
22908;DHT22;11620;50.050;8.690;2023-07-02T14:54:30;23.30;99.90
22908;DHT22;11620;50.050;8.690;2023-07-02T14:57:17;23.40;99.90
22908;DHT22;11620;50.050;8.690;2023-07-02T15:00:05;23.50;99.90
22908;DHT22;11620;50.050;8.690;2023-07-02T15:02:52;23.20;99.90
22908;DHT22;11620;50.050;8.690;2023-07-02T15:05:38;23.20;99.90
22908;DHT22;11620;50.050;8.690;2023-07-02T15:08:25;23.10;99.90
22908;DHT22;11620;50.050;8.690;2023-07-02T15:11:13;22.90;99.90
22908;DHT22;11620;50.050;8.690;2023-07-02T15:14:00;22.80;99.90
22908;DHT22;11620;50.050;8.690;2023-07-02T15:16:46;23.00;99.90
22908;DHT22;11620;50.050;8.690;2023-07-02T15:19:33;23.00;99.90
22908;DHT22;11620;50.050;8.690;2023-07-02T15:22:19;22.80;99.90
22908;DHT22;11620;50.050;8.690;2023-07-02T15:25:06;22.90;99.90
22908;DHT22;11620;50.050;8.690;2023-07-02T15:27:52;23.30;99.90
22908;DHT22;11620;50.050;8.690;2023-07-02T15:30:38;23.50;99.90
22908;DHT22;11620;50.050;8.690;2023-07-02T15:33:26;23.60;99.90
22908;DHT22;11620;50.050;8.690;2023-07-02T15:36:12;23.60;99.90
22908;DHT22;11620;50.050;8.690;2023-07-02T15:39:00;23.50;99.90
22908;DHT22;11620;50.050;8.690;2023-07-02T15:41:46;23.50;99.90
22908;DHT22;11620;50.050;8.690;2023-07-02T15:44:32;23.40;99.90
22908;DHT22;11620;50.050;8.690;2023-07-02T15:47:19;23.40;99.90
22908;DHT22;11620;50.050;8.690;2023-07-02T15:50:05;23.40;99.90
22908;DHT22;11620;50.050;8.690;2023-07-02T15:52:52;23.00;99.90
22908;DHT22;11620;50.050;8.690;2023-07-02T15:55:38;22.50;99.90
22908;DHT22;11620;50.050;8.690;2023-07-02T15:58:26;22.50;99.90
22908;DHT22;11620;50.050;8.690;2023-07-02T16:01:16;22.40;99.90
22908;DHT22;11620;50.050;8.690;2023-07-02T16:04:04;22.50;99.90
22908;DHT22;11620;50.050;8.690;2023-07-02T16:06:53;22.30;99.90
22908;DHT22;11620;50.050;8.690;2023-07-02T16:09:40;22.00;99.90
22908;DHT22;11620;50.050;8.690;2023-07-02T16:12:26;21.90;99.90
22908;DHT22;11620;50.050;8.690;2023-07-02T16:15:12;21.80;99.90
22908;DHT22;11620;50.050;8.690;2023-07-02T16:17:59;21.50;99.90
22908;DHT22;11620;50.050;8.690;2023-07-02T16:20:55;21.50;99.90
22908;DHT22;11620;50.050;8.690;2023-07-02T16:23:41;21.80;99.90
22908;DHT22;11620;50.050;8.690;2023-07-02T16:26:27;21.90;99.90
22908;DHT22;11620;50.050;8.690;2023-07-02T16:29:14;22.20;99.90
22908;DHT22;11620;50.050;8.690;2023-07-02T16:32:01;22.40;99.90
22908;DHT22;11620;50.050;8.690;2023-07-02T16:34:47;22.60;99.90
22908;DHT22;11620;50.050;8.690;2023-07-02T16:37:33;22.70;99.90
22908;DHT22;11620;50.050;8.690;2023-07-02T16:40:20;22.70;99.90
22908;DHT22;11620;50.050;8.690;2023-07-02T16:43:06;22.40;99.90
22908;DHT22;11620;50.050;8.690;2023-07-02T16:45:54;22.40;99.90
22908;DHT22;11620;50.050;8.690;2023-07-02T16:48:42;22.20;99.90
22908;DHT22;11620;50.050;8.690;2023-07-02T16:51:29;22.20;99.90
22908;DHT22;11620;50.050;8.690;2023-07-02T16:54:17;22.10;99.90
22908;DHT22;11620;50.050;8.690;2023-07-02T16:57:04;22.20;99.90
22908;DHT22;11620;50.050;8.690;2023-07-02T16:59:52;22.00;99.90
22908;DHT22;11620;50.050;8.690;2023-07-02T17:02:38;21.90;99.90
22908;DHT22;11620;50.050;8.690;2023-07-02T17:05:25;22.00;99.90
22908;DHT22;11620;50.050;8.690;2023-07-02T17:08:11;22.20;99.90
22908;DHT22;11620;50.050;8.690;2023-07-02T17:10:57;22.20;99.90
22908;DHT22;11620;50.050;8.690;2023-07-02T17:13:43;22.40;99.90
22908;DHT22;11620;50.050;8.690;2023-07-02T17:16:30;22.30;99.90
22908;DHT22;11620;50.050;8.690;2023-07-02T17:19:28;22.30;99.90
22908;DHT22;11620;50.050;8.690;2023-07-02T17:22:17;22.10;99.90
22908;DHT22;11620;50.050;8.690;2023-07-02T17:25:04;21.90;99.90
22908;DHT22;11620;50.050;8.690;2023-07-02T17:27:51;21.70;99.90
22908;DHT22;11620;50.050;8.690;2023-07-02T17:30:37;21.60;99.90
22908;DHT22;11620;50.050;8.690;2023-07-02T17:33:26;21.80;99.90
22908;DHT22;11620;50.050;8.690;2023-07-02T17:36:17;21.90;99.90
22908;DHT22;11620;50.050;8.690;2023-07-02T17:39:06;21.90;99.90